createdAt,value
2022-12-31T00:00:38.623Z,8.90
2022-12-31T00:03:11.138Z,8.90
2022-12-31T00:05:43.560Z,8.90
2022-12-31T00:08:16.042Z,8.90
2022-12-31T00:10:48.392Z,8.90
2022-12-31T00:13:20.799Z,8.90
2022-12-31T00:15:53.035Z,8.90
2022-12-31T00:18:27.108Z,8.90
2022-12-31T00:20:59.438Z,8.90
2022-12-31T00:23:31.802Z,8.90
2022-12-31T00:26:05.070Z,8.80
2022-12-31T00:28:37.786Z,8.80
2022-12-31T00:31:10.418Z,8.80
2022-12-31T00:33:43.161Z,8.80
2022-12-31T00:36:16.607Z,8.80
2022-12-31T00:38:50.201Z,8.70
2022-12-31T00:41:22.934Z,8.70
2022-12-31T00:43:56.540Z,8.70
2022-12-31T00:46:28.912Z,8.70
2022-12-31T00:49:01.333Z,8.70
2022-12-31T00:51:33.791Z,8.60
2022-12-31T00:54:06.116Z,8.60
2022-12-31T00:56:38.348Z,8.60
2022-12-31T00:59:10.583Z,8.60
2022-12-31T01:01:42.964Z,8.50
2022-12-31T01:04:16.682Z,8.60
2022-12-31T01:06:48.949Z,8.60
2022-12-31T01:09:21.615Z,8.50
2022-12-31T01:11:54.127Z,8.50
2022-12-31T01:14:26.628Z,8.50
2022-12-31T01:16:58.834Z,8.60
2022-12-31T01:19:31.113Z,8.60
2022-12-31T01:22:03.283Z,8.60
2022-12-31T01:24:35.642Z,8.50
2022-12-31T01:27:08.145Z,8.50
2022-12-31T01:29:40.519Z,8.60
2022-12-31T01:32:12.875Z,8.60
2022-12-31T01:34:45.262Z,8.60
2022-12-31T01:37:17.720Z,8.70
2022-12-31T01:39:50.002Z,8.70
2022-12-31T01:42:22.336Z,8.70
2022-12-31T01:44:56.038Z,8.70
2022-12-31T01:47:34.032Z,8.70
2022-12-31T01:50:10.196Z,8.70
2022-12-31T01:52:45.327Z,8.80
2022-12-31T01:55:21.038Z,8.80
2022-12-31T01:57:55.949Z,8.80
2022-12-31T02:00:28.343Z,8.80
2022-12-31T02:03:00.912Z,8.70
2022-12-31T02:05:37.252Z,8.80
2022-12-31T02:08:10.436Z,8.70
2022-12-31T02:10:42.642Z,8.80
2022-12-31T02:13:15.065Z,8.80
2022-12-31T02:15:55.122Z,8.80
2022-12-31T02:18:32.953Z,8.80
2022-12-31T02:21:13.642Z,8.80
2022-12-31T02:24:02.050Z,8.80
2022-12-31T02:26:46.401Z,8.80
2022-12-31T02:29:38.519Z,8.80
2022-12-31T02:32:21.146Z,8.80
2022-12-31T02:34:57.149Z,8.80
2022-12-31T02:37:30.592Z,8.80
2022-12-31T02:40:03.155Z,8.80
2022-12-31T02:42:35.541Z,8.80
2022-12-31T02:45:08.268Z,8.80
2022-12-31T02:47:50.760Z,8.80
2022-12-31T02:50:31.308Z,8.80
2022-12-31T02:53:14.289Z,8.80
2022-12-31T02:55:47.987Z,8.70
2022-12-31T02:58:51.594Z,8.70
2022-12-31T03:01:41.834Z,8.70
2022-12-31T03:04:30.067Z,8.70
2022-12-31T03:07:03.512Z,8.70
2022-12-31T03:09:36.709Z,8.70
2022-12-31T03:12:25.877Z,8.70
2022-12-31T03:14:58.283Z,8.70
2022-12-31T03:17:30.483Z,8.70
2022-12-31T03:20:20.677Z,8.80
2022-12-31T03:22:53.590Z,8.70
2022-12-31T03:25:41.874Z,8.70
2022-12-31T03:28:16.115Z,8.70
2022-12-31T03:30:50.388Z,8.70
2022-12-31T03:33:23.087Z,8.80
2022-12-31T03:35:55.640Z,8.80
2022-12-31T03:38:27.947Z,8.80
2022-12-31T03:41:00.575Z,8.80
2022-12-31T03:43:32.997Z,8.80
2022-12-31T03:46:05.545Z,8.80
2022-12-31T03:48:38.161Z,8.80
2022-12-31T03:51:10.551Z,8.80
2022-12-31T03:53:43.321Z,8.80
2022-12-31T03:56:15.841Z,8.80
2022-12-31T03:58:48.254Z,8.80
2022-12-31T04:01:24.648Z,8.80
2022-12-31T04:03:57.041Z,8.80
2022-12-31T04:06:29.363Z,8.80
2022-12-31T04:09:02.313Z,8.90
2022-12-31T04:11:34.634Z,8.90
2022-12-31T04:14:06.926Z,8.90
2022-12-31T04:16:39.311Z,8.80
2022-12-31T04:19:12.352Z,8.90
2022-12-31T04:21:44.757Z,8.80
2022-12-31T04:24:17.083Z,8.80
2022-12-31T04:30:11.689Z,8.80
2022-12-31T04:32:44.403Z,8.80
2022-12-31T04:35:17.561Z,8.80
2022-12-31T04:37:50.038Z,8.80
2022-12-31T04:40:22.397Z,8.80
2022-12-31T04:42:54.915Z,8.80
2022-12-31T04:45:27.300Z,8.80
2022-12-31T04:47:59.637Z,8.90
2022-12-31T04:50:32.160Z,8.90
2022-12-31T04:53:04.552Z,8.90
2022-12-31T04:55:36.892Z,8.90
2022-12-31T04:58:09.446Z,8.90
2022-12-31T05:00:41.854Z,8.90
2022-12-31T05:03:14.183Z,8.90
2022-12-31T05:05:46.567Z,8.90
2022-12-31T05:08:19.187Z,8.90
2022-12-31T05:10:51.446Z,8.90
2022-12-31T05:13:29.405Z,8.90
2022-12-31T05:16:06.074Z,8.90
2022-12-31T05:18:38.912Z,8.90
2022-12-31T05:21:15.140Z,8.90
2022-12-31T05:23:47.932Z,8.80
2022-12-31T05:26:20.658Z,8.80
2022-12-31T05:28:53.098Z,8.80
2022-12-31T05:31:25.437Z,8.80
2022-12-31T05:33:57.755Z,8.80
2022-12-31T05:36:29.994Z,8.80
2022-12-31T05:39:02.380Z,8.80
2022-12-31T05:41:34.701Z,8.80
2022-12-31T05:44:07.268Z,8.80
2022-12-31T05:46:39.659Z,8.80
2022-12-31T05:49:12.069Z,8.80
2022-12-31T05:51:44.414Z,8.80
2022-12-31T05:54:16.915Z,8.90
2022-12-31T05:56:49.343Z,8.90
2022-12-31T05:59:21.722Z,8.90
2022-12-31T06:01:54.003Z,8.90
2022-12-31T06:04:26.839Z,8.90
2022-12-31T06:06:59.109Z,8.80
2022-12-31T06:09:31.491Z,8.80
2022-12-31T06:12:03.949Z,8.90
2022-12-31T06:14:40.804Z,8.90
2022-12-31T06:17:16.141Z,8.90
2022-12-31T06:19:48.656Z,8.90
2022-12-31T06:22:21.011Z,8.90
2022-12-31T06:24:53.386Z,8.90
2022-12-31T06:27:25.715Z,8.90
2022-12-31T06:29:58.096Z,9.00
2022-12-31T06:32:30.446Z,8.90
2022-12-31T06:35:02.897Z,9.00
2022-12-31T06:37:35.547Z,9.00
2022-12-31T06:40:08.293Z,8.90
2022-12-31T06:42:42.324Z,9.00
2022-12-31T06:45:14.717Z,8.90
2022-12-31T06:47:47.091Z,9.00
2022-12-31T06:50:21.618Z,9.00
2022-12-31T06:52:53.902Z,9.00
2022-12-31T06:55:26.522Z,9.00
2022-12-31T06:57:59.013Z,9.00
2022-12-31T07:00:31.539Z,9.00
2022-12-31T07:03:19.971Z,9.00
2022-12-31T07:05:58.367Z,9.00
2022-12-31T07:08:30.948Z,9.00
2022-12-31T07:11:06.583Z,9.10
2022-12-31T07:13:54.748Z,9.00
2022-12-31T07:16:28.385Z,9.10
2022-12-31T07:19:00.980Z,9.10
2022-12-31T07:21:35.839Z,9.10
2022-12-31T07:24:09.818Z,9.10
2022-12-31T07:26:54.269Z,9.10
2022-12-31T07:29:52.773Z,9.10
2022-12-31T07:32:40.300Z,9.10
2022-12-31T07:35:15.939Z,9.10
2022-12-31T07:38:00.312Z,9.00
2022-12-31T07:40:48.648Z,9.00
2022-12-31T07:43:36.151Z,9.00
2022-12-31T07:46:24.513Z,9.00
2022-12-31T07:48:58.295Z,9.00
2022-12-31T07:51:30.930Z,9.00
2022-12-31T07:54:06.379Z,9.00
2022-12-31T07:56:42.178Z,8.90
2022-12-31T07:59:27.961Z,8.90
2022-12-31T08:02:17.251Z,8.90
2022-12-31T08:04:57.694Z,8.90
2022-12-31T08:07:41.430Z,9.00
2022-12-31T08:10:29.079Z,9.00
2022-12-31T08:13:02.793Z,9.10
2022-12-31T08:15:37.085Z,9.10
2022-12-31T08:18:09.959Z,9.10
2022-12-31T08:20:55.107Z,9.20
2022-12-31T08:23:30.778Z,9.30
2022-12-31T08:26:18.412Z,9.40
2022-12-31T08:29:05.903Z,9.40
2022-12-31T08:31:48.623Z,9.50
2022-12-31T08:34:29.154Z,9.60
2022-12-31T08:37:04.852Z,9.60
2022-12-31T08:39:44.300Z,9.60
2022-12-31T08:42:22.926Z,9.70
2022-12-31T08:45:03.351Z,9.60
2022-12-31T08:47:45.986Z,9.70
2022-12-31T08:50:19.304Z,9.70
2022-12-31T08:52:51.822Z,9.70
2022-12-31T08:55:24.387Z,9.70
2022-12-31T08:58:11.927Z,9.70
2022-12-31T09:00:47.959Z,9.70
2022-12-31T09:03:29.906Z,9.80
2022-12-31T09:06:02.661Z,9.80
2022-12-31T09:08:41.012Z,9.90
2022-12-31T09:11:22.869Z,10.00
2022-12-31T09:13:56.669Z,10.00
2022-12-31T09:16:45.250Z,10.10
2022-12-31T09:19:17.758Z,10.20
2022-12-31T09:21:50.115Z,10.30
2022-12-31T09:24:22.853Z,10.50
2022-12-31T09:26:56.655Z,10.50
2022-12-31T09:29:44.275Z,10.50
2022-12-31T09:32:30.376Z,10.60
2022-12-31T09:35:04.557Z,10.70
2022-12-31T09:37:37.193Z,10.80
2022-12-31T09:40:24.483Z,10.90
2022-12-31T09:43:12.746Z,11.00
2022-12-31T09:46:00.287Z,11.10
2022-12-31T09:48:51.327Z,11.10
2022-12-31T09:51:29.859Z,11.20
2022-12-31T09:54:10.613Z,11.30
2022-12-31T09:56:46.099Z,11.30
2022-12-31T09:59:19.520Z,11.30
2022-12-31T10:02:07.140Z,11.30
2022-12-31T10:04:55.172Z,11.40
2022-12-31T10:07:48.738Z,11.40
2022-12-31T10:10:40.308Z,11.50
2022-12-31T10:13:14.023Z,11.60
2022-12-31T10:15:54.011Z,11.70
2022-12-31T10:18:38.226Z,11.70
2022-12-31T10:21:12.011Z,11.60
2022-12-31T10:23:59.540Z,11.70
2022-12-31T10:26:38.283Z,11.70
2022-12-31T10:29:26.994Z,11.60
2022-12-31T10:31:59.733Z,11.70
2022-12-31T10:34:48.214Z,11.70
2022-12-31T10:37:30.216Z,11.70
2022-12-31T10:40:10.510Z,11.70
2022-12-31T10:42:43.429Z,11.70
2022-12-31T10:45:31.594Z,11.60
2022-12-31T10:48:13.312Z,11.60
2022-12-31T10:51:01.227Z,11.70
2022-12-31T10:53:33.988Z,11.70
2022-12-31T10:56:22.132Z,11.60
2022-12-31T10:58:57.876Z,11.60
2022-12-31T11:01:34.847Z,11.60
2022-12-31T11:04:08.816Z,11.70
2022-12-31T11:06:41.825Z,11.60
2022-12-31T11:09:34.401Z,11.60
2022-12-31T11:12:08.831Z,11.60
2022-12-31T11:14:41.743Z,11.60
2022-12-31T11:17:29.866Z,11.50
2022-12-31T11:20:10.953Z,11.60
2022-12-31T11:22:49.481Z,11.50
2022-12-31T11:25:29.011Z,11.50
2022-12-31T11:28:01.721Z,11.40
2022-12-31T11:30:37.395Z,11.50
2022-12-31T11:33:25.793Z,11.50
2022-12-31T11:35:59.427Z,11.50
2022-12-31T11:38:36.770Z,11.60
2022-12-31T11:41:15.608Z,11.70
2022-12-31T11:43:56.600Z,11.70
2022-12-31T11:46:44.634Z,11.70
2022-12-31T11:49:33.437Z,11.70
2022-12-31T11:52:21.869Z,11.70
2022-12-31T11:55:09.824Z,11.80
2022-12-31T11:57:46.992Z,11.80
2022-12-31T12:00:21.060Z,11.80
2022-12-31T12:02:53.794Z,11.70
2022-12-31T12:05:26.450Z,12.00
2022-12-31T12:07:58.868Z,11.70
2022-12-31T12:10:46.645Z,11.70
2022-12-31T12:13:22.504Z,11.70
2022-12-31T12:15:56.301Z,11.60
2022-12-31T12:18:30.121Z,11.50
2022-12-31T12:21:07.890Z,11.60
2022-12-31T12:23:40.901Z,11.60
2022-12-31T12:26:28.750Z,11.70
2022-12-31T12:29:09.705Z,11.70
2022-12-31T12:31:42.913Z,11.60
2022-12-31T12:34:30.679Z,11.60
2022-12-31T12:37:03.612Z,11.50
2022-12-31T12:39:35.939Z,11.50
2022-12-31T12:42:11.973Z,11.50
2022-12-31T12:44:44.369Z,11.50
2022-12-31T12:47:18.642Z,11.50
2022-12-31T12:49:54.412Z,9.20
2022-12-31T12:52:27.197Z,11.50
2022-12-31T12:55:15.393Z,11.40
2022-12-31T12:58:03.078Z,11.40
2022-12-31T13:00:46.983Z,11.40
2022-12-31T13:03:22.663Z,11.40
2022-12-31T13:06:02.974Z,11.40
2022-12-31T13:08:50.867Z,11.40
2022-12-31T13:11:38.309Z,11.40
2022-12-31T13:14:12.138Z,11.40
2022-12-31T13:16:50.393Z,11.40
2022-12-31T13:19:29.571Z,11.40
2022-12-31T13:22:16.928Z,11.30
2022-12-31T13:24:57.961Z,11.30
2022-12-31T13:27:35.105Z,11.30
2022-12-31T13:30:15.076Z,11.30
2022-12-31T13:32:50.207Z,11.30
2022-12-31T13:35:25.735Z,11.30
2022-12-31T13:38:05.767Z,11.30
2022-12-31T13:40:46.561Z,11.30
2022-12-31T13:43:22.597Z,11.30
2022-12-31T13:46:01.801Z,11.30
2022-12-31T13:48:37.806Z,11.30
2022-12-31T13:51:25.783Z,11.20
2022-12-31T13:54:10.501Z,11.20
2022-12-31T13:56:43.707Z,11.10
2022-12-31T13:59:19.594Z,11.10
2022-12-31T14:01:54.907Z,11.10
2022-12-31T14:04:34.549Z,11.20
2022-12-31T14:07:12.736Z,11.20
2022-12-31T14:09:46.675Z,11.20
2022-12-31T14:12:35.038Z,11.20
2022-12-31T14:15:23.124Z,11.10
2022-12-31T14:18:11.477Z,11.10
2022-12-31T14:20:45.223Z,11.10
2022-12-31T14:23:24.487Z,11.10
2022-12-31T14:26:00.134Z,11.10
2022-12-31T14:28:44.670Z,11.10
2022-12-31T14:31:28.777Z,11.10
2022-12-31T14:34:13.088Z,11.10
2022-12-31T14:37:00.991Z,11.10
2022-12-31T14:39:46.591Z,11.10
2022-12-31T14:42:23.286Z,11.10
2022-12-31T14:45:11.339Z,11.10
2022-12-31T14:47:53.945Z,11.10
2022-12-31T14:50:27.647Z,11.10
2022-12-31T14:53:00.422Z,11.00
2022-12-31T14:55:34.748Z,11.00
2022-12-31T14:58:28.112Z,11.00
2022-12-31T15:01:02.395Z,11.00
2022-12-31T15:03:39.979Z,11.00
2022-12-31T15:06:31.382Z,11.00
2022-12-31T15:09:12.483Z,11.00
2022-12-31T15:11:58.164Z,11.00
2022-12-31T15:14:37.226Z,10.90
2022-12-31T15:17:20.622Z,10.90
2022-12-31T15:19:53.441Z,10.90
2022-12-31T15:22:41.242Z,10.90
2022-12-31T15:25:20.414Z,10.90
2022-12-31T15:27:53.118Z,10.90
2022-12-31T15:30:32.847Z,10.90
2022-12-31T15:33:08.955Z,10.80
2022-12-31T15:35:46.700Z,10.90
2022-12-31T15:38:29.506Z,10.90
2022-12-31T15:41:13.063Z,10.80
2022-12-31T15:43:51.009Z,10.80
2022-12-31T15:46:26.562Z,10.80
2022-12-31T15:49:04.938Z,10.80
2022-12-31T15:51:43.990Z,10.80
2022-12-31T15:54:31.550Z,10.80
2022-12-31T15:57:09.295Z,10.80
2022-12-31T15:59:42.134Z,10.80
2022-12-31T16:02:23.976Z,10.80
2022-12-31T16:04:57.222Z,10.80
2022-12-31T16:07:29.696Z,10.80
2022-12-31T16:10:09.377Z,10.80
2022-12-31T16:12:44.802Z,10.80
2022-12-31T16:15:20.974Z,10.80
2022-12-31T16:18:01.919Z,10.80
2022-12-31T16:20:34.894Z,10.80
2022-12-31T16:23:20.153Z,10.80
2022-12-31T16:25:53.872Z,10.80
2022-12-31T16:28:30.010Z,10.80
2022-12-31T16:31:03.748Z,10.80
2022-12-31T16:33:36.075Z,10.80
2022-12-31T16:36:19.341Z,10.80
2022-12-31T16:38:52.144Z,10.80
2022-12-31T16:41:24.657Z,10.80
2022-12-31T16:43:56.988Z,10.70
2022-12-31T16:46:31.335Z,10.80
2022-12-31T16:49:12.747Z,10.80
2022-12-31T16:51:45.177Z,10.80
2022-12-31T16:54:20.104Z,10.80
2022-12-31T16:56:52.549Z,10.80
2022-12-31T16:59:33.503Z,10.70
2022-12-31T17:02:15.249Z,10.70
2022-12-31T17:04:55.377Z,10.70
2022-12-31T17:07:30.609Z,10.70
2022-12-31T17:10:04.424Z,10.70
2022-12-31T17:13:25.410Z,10.70
2022-12-31T17:15:40.674Z,10.70
2022-12-31T17:18:17.428Z,10.70
2022-12-31T17:20:51.645Z,10.70
2022-12-31T17:23:26.134Z,10.70
2022-12-31T17:26:00.607Z,10.70
2022-12-31T17:28:38.753Z,10.70
2022-12-31T17:31:27.006Z,10.70
2022-12-31T17:34:06.066Z,10.70
2022-12-31T17:36:38.988Z,10.70
2022-12-31T17:39:18.131Z,10.70
2022-12-31T17:41:51.736Z,10.70
2022-12-31T17:44:27.913Z,10.70
2022-12-31T17:47:02.040Z,10.70
2022-12-31T17:49:35.043Z,10.70
2022-12-31T17:52:13.304Z,10.70
2022-12-31T17:54:45.761Z,10.70
2022-12-31T17:57:24.764Z,10.60
2022-12-31T17:59:57.377Z,10.60
2022-12-31T18:02:29.867Z,10.70
2022-12-31T18:05:02.730Z,10.60
2022-12-31T18:07:35.158Z,10.60
2022-12-31T18:10:07.647Z,10.60
2022-12-31T18:12:40.137Z,10.60
2022-12-31T18:15:16.938Z,10.60
2022-12-31T18:17:49.581Z,10.60
2022-12-31T18:20:22.048Z,10.60
2022-12-31T18:22:55.932Z,10.60
2022-12-31T18:25:28.373Z,10.60
2022-12-31T18:28:01.034Z,10.50
2022-12-31T18:30:33.466Z,10.60
2022-12-31T18:33:06.615Z,10.50
2022-12-31T18:36:07.589Z,10.50
2022-12-31T18:38:32.809Z,10.50
2022-12-31T18:41:05.902Z,10.60
2022-12-31T18:43:39.395Z,10.60
2022-12-31T18:46:14.151Z,10.60
2022-12-31T18:48:46.677Z,10.60
2022-12-31T18:51:20.652Z,10.60
2022-12-31T18:53:53.169Z,10.60
2022-12-31T18:56:25.768Z,10.60
2022-12-31T18:58:59.951Z,10.60
2022-12-31T19:01:33.505Z,10.60
2022-12-31T19:04:13.883Z,10.50
2022-12-31T19:06:46.657Z,10.50
2022-12-31T19:09:44.265Z,10.60
2022-12-31T19:12:13.346Z,10.50
2022-12-31T19:14:45.836Z,10.50
2022-12-31T19:17:18.263Z,10.50
2022-12-31T19:19:50.925Z,10.50
2022-12-31T19:22:23.546Z,10.50
2022-12-31T19:24:56.019Z,10.50
2022-12-31T19:27:28.482Z,10.50
2022-12-31T19:30:01.558Z,10.50
2022-12-31T19:32:34.324Z,10.50
2022-12-31T19:35:06.889Z,10.50
2022-12-31T19:37:39.593Z,10.40
2022-12-31T19:40:14.178Z,10.40
2022-12-31T19:42:47.134Z,10.40
2022-12-31T19:45:22.742Z,10.40
2022-12-31T19:47:56.677Z,10.30
2022-12-31T19:50:29.006Z,10.30
2022-12-31T19:53:01.487Z,10.30
2022-12-31T19:55:35.046Z,10.30
2022-12-31T19:58:07.902Z,10.20
2022-12-31T20:00:40.452Z,10.20
2022-12-31T20:03:13.144Z,10.20
2022-12-31T20:05:48.171Z,10.20
2022-12-31T20:08:23.127Z,10.20
2022-12-31T20:10:58.929Z,10.20
2022-12-31T20:13:31.388Z,10.20
2022-12-31T20:16:06.332Z,10.20
2022-12-31T20:18:39.298Z,10.20
2022-12-31T20:21:13.915Z,10.10
2022-12-31T20:23:47.285Z,10.10
2022-12-31T20:26:21.550Z,10.10
2022-12-31T20:28:54.140Z,10.10
2022-12-31T20:31:26.940Z,10.10
2022-12-31T20:33:59.569Z,10.10
2022-12-31T20:36:31.905Z,10.10
2022-12-31T20:39:05.034Z,10.10
2022-12-31T20:41:38.428Z,10.10
2022-12-31T20:44:11.010Z,10.10
2022-12-31T20:46:43.585Z,10.00
2022-12-31T20:49:16.186Z,10.00
2022-12-31T20:51:52.053Z,10.00
2022-12-31T20:54:25.739Z,9.90
2022-12-31T20:57:01.579Z,9.90
2022-12-31T20:59:34.175Z,9.90
2022-12-31T21:02:29.550Z,9.90
2022-12-31T21:04:59.574Z,9.80
2022-12-31T21:07:32.753Z,9.80
2022-12-31T21:10:05.511Z,9.80
2022-12-31T21:12:45.150Z,9.80
2022-12-31T21:15:17.660Z,9.80
2022-12-31T21:17:49.921Z,9.80
2022-12-31T21:20:22.419Z,9.80
2022-12-31T21:22:55.072Z,9.80
2022-12-31T21:25:27.623Z,9.80
2022-12-31T21:28:00.015Z,9.80
2022-12-31T21:30:33.530Z,9.80
2022-12-31T21:33:08.723Z,9.80
2022-12-31T21:35:48.734Z,9.70
2022-12-31T21:38:27.007Z,9.70
2022-12-31T21:41:03.623Z,9.80
2022-12-31T21:43:36.344Z,9.70
2022-12-31T21:46:09.990Z,9.70
2022-12-31T21:48:42.521Z,9.70
2022-12-31T21:51:16.887Z,9.80
2022-12-31T21:53:49.377Z,9.80
2022-12-31T21:56:23.065Z,9.80
2022-12-31T21:59:12.710Z,9.70
2022-12-31T22:02:00.581Z,9.80
2022-12-31T22:05:01.544Z,9.80
2022-12-31T22:07:26.267Z,9.70
2022-12-31T22:09:58.735Z,9.70
2022-12-31T22:12:31.228Z,9.70
2022-12-31T22:15:15.274Z,9.70
2022-12-31T22:17:49.669Z,9.70
2022-12-31T22:20:29.505Z,9.70
2022-12-31T22:23:02.756Z,9.70
2022-12-31T22:25:35.562Z,9.70
2022-12-31T22:31:01.166Z,9.70
2022-12-31T22:33:33.627Z,9.70
2022-12-31T22:36:07.696Z,9.70
2022-12-31T22:38:40.795Z,9.70
2022-12-31T22:41:15.315Z,9.70
2022-12-31T22:43:49.432Z,9.70
2022-12-31T22:46:23.280Z,9.70
2022-12-31T22:48:59.250Z,9.70
2022-12-31T22:51:57.397Z,9.70
2022-12-31T22:54:25.249Z,9.60
2022-12-31T22:56:57.645Z,9.60
2022-12-31T22:59:30.291Z,9.60
2022-12-31T23:02:02.848Z,9.60
2022-12-31T23:04:36.500Z,9.60
2022-12-31T23:07:10.324Z,9.60
2022-12-31T23:09:59.064Z,9.60
2022-12-31T23:12:31.642Z,9.60
2022-12-31T23:15:19.794Z,9.60
2022-12-31T23:18:08.000Z,9.50
2022-12-31T23:20:55.881Z,9.50
2022-12-31T23:23:28.477Z,9.50
2022-12-31T23:26:02.162Z,9.50
2022-12-31T23:28:34.773Z,9.50
2022-12-31T23:31:08.159Z,9.40
2022-12-31T23:33:41.187Z,9.40
2022-12-31T23:36:13.780Z,9.50
2022-12-31T23:38:46.537Z,9.50
2022-12-31T23:41:20.281Z,9.40
2022-12-31T23:43:52.889Z,9.50
2022-12-31T23:46:25.709Z,9.40
2022-12-31T23:48:58.286Z,9.50
2022-12-31T23:51:30.893Z,9.40
2022-12-31T23:54:04.910Z,9.50
2022-12-31T23:56:37.265Z,9.50
2022-12-31T23:59:10.949Z,9.50
